Time;durP1;ratioP1;P1;durP2;ratioP2;P2;SDS_P1;SDS_P2;PMS_P1;PMS_P2;Temp;Humidity;BMP_temperature;BMP_pressure;BME280_temperature;BME280_humidity;BME280_pressure;Samples;Min_cycle;Max_cycle;Signal;HPM_P1;HPM_P2
2021/12/28 00:01:11;;;;;;;12.53;11.43;;;;;;;3.49;95.17;99116.22;5085509;28;20707;-79
2021/12/28 00:03:42;;;;;;;13.13;12.03;;;;;;;3.45;95.34;99122.28;5089071;28;20255;-79
2021/12/28 00:06:09;;;;;;;12.40;11.30;;;;;;;3.49;95.03;99111.94;5074084;28;20215;-78
2021/12/28 00:08:36;;;;;;;12.73;11.63;;;;;;;3.54;95.04;99114.47;5093169;28;20200;-79
2021/12/28 00:11:03;;;;;;;14.67;13.33;;;;;;;3.54;95.06;99102.41;5093120;28;20204;-79
2021/12/28 00:13:32;;;;;;;13.40;12.20;;;;;;;3.54;94.73;99104.13;5093632;28;20281;-79
2021/12/28 00:16:18;;;;;;;13.53;12.23;;;;;;;3.55;94.83;99098.97;5084961;28;20204;-79
2021/12/28 00:18:46;;;;;;;12.33;11.23;;;;;;;3.57;95.03;99107.53;5079689;28;20545;-79
2021/12/28 00:21:13;;;;;;;13.30;12.10;;;;;;;3.57;94.95;99104.97;5093522;28;20204;-79
2021/12/28 00:23:40;;;;;;;13.10;12.00;;;;;;;3.57;94.93;99109.28;5085065;28;20682;-78
2021/12/28 00:26:08;;;;;;;12.87;11.77;;;;;;;3.61;94.96;99104.91;5085168;28;20585;-79
2021/12/28 00:28:35;;;;;;;12.83;11.53;;;;;;;3.58;95.04;99106.66;5085478;28;20192;-79
2021/12/28 00:31:02;;;;;;;12.93;11.83;;;;;;;3.58;94.90;99104.06;5086828;28;20201;-79
2021/12/28 00:33:28;;;;;;;12.67;11.57;;;;;;;3.68;94.93;99109.97;5083542;28;20274;-79
2021/12/28 00:35:56;;;;;;;13.17;11.97;;;;;;;3.60;94.83;99113.53;5085460;28;20200;-78
2021/12/28 00:38:25;;;;;;;12.97;11.77;;;;;;;3.64;94.78;99107.47;5092930;28;20200;-79
2021/12/28 00:40:53;;;;;;;12.10;11.00;;;;;;;3.64;94.40;99112.63;5094107;28;20222;-78
2021/12/28 00:43:20;;;;;;;12.80;11.70;;;;;;;3.61;94.72;99108.38;5084641;28;20295;-78
2021/12/28 00:45:48;;;;;;;13.53;12.33;;;;;;;3.64;94.44;99105.72;5085036;28;20204;-79
2021/12/28 00:48:15;;;;;;;12.73;11.63;;;;;;;3.64;94.51;99100.56;5085138;28;20221;-79
2021/12/28 00:50:42;;;;;;;12.03;11.03;;;;;;;3.66;94.24;99105.72;5081841;28;20201;-78
2021/12/28 00:53:11;;;;;;;12.53;11.47;;;;;;;3.56;94.48;99089.50;5088687;28;20560;-79
2021/12/28 00:55:38;;;;;;;13.33;12.23;;;;;;;3.56;94.75;99089.50;5085807;28;20200;-79
2021/12/28 00:58:05;;;;;;;13.67;12.40;;;;;;;3.57;94.58;99086.06;5079903;28;20258;-79
2021/12/28 01:00:34;;;;;;;12.60;11.50;;;;;;;3.57;94.61;99081.75;5092763;28;20254;-79
2021/12/28 01:03:03;;;;;;;12.20;11.20;;;;;;;3.62;94.75;99080.84;5084069;28;20200;-79
2021/12/28 01:05:30;;;;;;;13.27;12.20;;;;;;;3.53;94.86;99077.50;5085733;28;20741;-79
2021/12/28 01:07:57;;;;;;;12.73;11.63;;;;;;;3.58;94.58;99080.84;5096353;28;20224;-78
2021/12/28 01:10:28;;;;;;;12.93;11.73;;;;;;;3.60;94.89;99075.69;5097330;28;20192;-79
2021/12/28 01:12:55;;;;;;;11.90;10.90;;;;;;;3.60;94.60;99077.41;5094396;28;20204;-79
2021/12/28 01:15:22;;;;;;;11.57;10.53;;;;;;;3.64;94.69;99081.66;5090490;28;20216;-78
2021/12/28 01:17:50;;;;;;;12.10;11.10;;;;;;;3.67;94.27;99076.47;5096742;28;20228;-79
2021/12/28 01:20:17;;;;;;;11.77;10.77;;;;;;;3.68;94.25;99080.75;5085971;28;20246;-78
2021/12/28 01:22:45;;;;;;;11.70;10.70;;;;;;;3.64;94.23;99086.81;5084353;28;20615;-79
2021/12/28 01:25:14;;;;;;;12.13;11.10;;;;;;;3.61;94.69;99069.66;5088458;28;20218;-79
2021/12/28 01:27:42;;;;;;;11.93;10.97;;;;;;;3.60;94.68;99070.53;5088642;28;20273;-79
2021/12/28 01:30:10;;;;;;;12.17;11.07;;;;;;;3.64;94.39;99068.75;5087915;28;20632;-79
2021/12/28 01:32:37;;;;;;;11.83;10.83;;;;;;;3.65;94.96;99061.00;5083027;28;20192;-79
2021/12/28 01:35:06;;;;;;;11.17;10.17;;;;;;;3.63;94.91;99051.56;5092992;28;20220;-80
2021/12/28 01:37:33;;;;;;;12.10;11.10;;;;;;;3.60;94.89;99049.88;5087574;28;20220;-79
2021/12/28 01:39:59;;;;;;;11.73;10.67;;;;;;;3.62;95.25;99044.72;5097190;28;20250;-79
2021/12/28 01:42:26;;;;;;;12.53;11.50;;;;;;;3.60;95.17;99031.81;5079959;28;20200;-79
2021/12/28 01:44:53;;;;;;;11.70;10.60;;;;;;;3.65;95.53;99044.66;5088349;28;20257;-80
2021/12/28 01:47:20;;;;;;;11.80;10.90;;;;;;;3.52;95.50;99044.81;5087860;28;20628;-79
2021/12/28 01:49:46;;;;;;;11.53;10.63;;;;;;;3.62;95.17;99036.97;5085363;28;20201;-79
2021/12/28 01:52:13;;;;;;;11.60;10.60;;;;;;;3.61;94.94;99045.56;5092965;28;20253;-79
2021/12/28 01:54:39;;;;;;;11.50;10.50;;;;;;;3.60;94.83;99041.28;5085661;28;20224;-79
2021/12/28 01:57:06;;;;;;;11.80;10.80;;;;;;;3.60;94.84;99049.03;5076588;28;20287;-79
2021/12/28 01:59:33;;;;;;;11.00;10.00;;;;;;;3.52;94.98;99055.13;5078486;28;20254;-80
2021/12/28 02:02:01;;;;;;;11.10;10.20;;;;;;;3.58;94.72;99042.16;5096634;28;20213;-80
2021/12/28 02:04:29;;;;;;;10.70;9.80;;;;;;;3.62;94.87;99048.13;5094965;28;20185;-79
2021/12/28 02:06:57;;;;;;;11.33;10.43;;;;;;;3.56;94.54;99056.81;5105452;28;20262;-79
2021/12/28 02:09:24;;;;;;;10.50;9.60;;;;;;;3.57;94.53;99047.34;5093899;28;20200;-79
2021/12/28 02:11:52;;;;;;;9.17;8.47;;;;;;;3.49;94.86;99039.72;5095484;28;20204;-79
2021/12/28 02:14:21;;;;;;;11.00;10.00;;;;;;;3.50;95.05;99033.66;5090798;28;20222;-79
2021/12/28 02:16:47;;;;;;;11.50;10.50;;;;;;;3.54;95.63;99024.16;5092553;28;20612;-79
2021/12/28 02:19:16;;;;;;;11.00;10.00;;;;;;;3.55;95.97;99013.00;5076289;28;20621;-80
2021/12/28 02:21:43;;;;;;;10.77;9.77;;;;;;;3.64;96.25;99005.09;5091701;28;20295;-78
2021/12/28 02:24:10;;;;;;;9.97;9.07;;;;;;;3.71;96.04;99005.88;5076031;28;20246;-80
2021/12/28 02:26:37;;;;;;;9.80;9.00;;;;;;;3.75;95.89;99015.28;5083454;28;20216;-79
2021/12/28 02:29:06;;;;;;;10.53;9.63;;;;;;;3.78;95.62;99026.41;5088173;28;20258;-79
2021/12/28 02:31:33;;;;;;;9.43;8.63;;;;;;;3.75;95.62;99023.88;5090474;28;20224;-79
2021/12/28 02:34:01;;;;;;;10.03;9.23;;;;;;;3.77;95.47;99010.97;5083935;28;20254;-79
2021/12/28 02:36:28;;;;;;;10.90;9.90;;;;;;;3.81;95.38;99009.19;5079963;28;20228;-80
2021/12/28 02:38:55;;;;;;;9.97;9.17;;;;;;;3.80;95.58;98999.72;5092365;28;20204;-79
2021/12/28 02:41:22;;;;;;;10.23;9.37;;;;;;;3.82;95.57;98995.41;5092146;28;20205;-79
2021/12/28 02:43:49;;;;;;;9.67;8.67;;;;;;;3.83;95.48;98989.38;5087749;28;20208;-79
2021/12/28 02:46:17;;;;;;;9.40;8.60;;;;;;;3.86;96.12;98974.66;5078667;28;20224;-80
2021/12/28 02:48:43;;;;;;;9.17;8.37;;;;;;;3.90;95.93;98963.41;5079820;28;20211;-79
2021/12/28 02:51:13;;;;;;;8.97;8.27;;;;;;;3.96;95.72;98968.50;5096225;28;20226;-79
2021/12/28 02:53:40;;;;;;;8.83;8.13;;;;;;;3.97;95.55;98983.09;5091905;28;20209;-79
2021/12/28 02:56:08;;;;;;;8.73;8.03;;;;;;;4.04;95.25;98985.59;5084486;28;20193;-79
2021/12/28 02:58:38;;;;;;;9.77;8.97;;;;;;;4.03;95.55;98991.66;5086097;28;20192;-79
2021/12/28 03:01:08;;;;;;;8.87;8.17;;;;;;;4.01;95.65;98973.59;5087296;28;20205;-79
2021/12/28 03:03:36;;;;;;;9.20;8.40;;;;;;;4.09;95.07;98976.91;5093054;28;20208;-79
2021/12/28 03:06:04;;;;;;;8.20;7.60;;;;;;;4.13;95.37;98983.72;5083961;28;20204;-79
2021/12/28 03:08:32;;;;;;;8.63;7.90;;;;;;;4.11;95.40;98979.47;5094395;28;20662;-79
2021/12/28 03:11:01;;;;;;;8.50;7.80;;;;;;;4.16;95.32;98970.75;5093607;28;20269;-80
2021/12/28 03:13:32;;;;;;;8.83;8.13;;;;;;;4.20;95.10;98981.03;5094746;28;20278;-79
2021/12/28 03:15:59;;;;;;;8.50;7.80;;;;;;;4.24;95.10;98987.84;5075133;28;20282;-79
2021/12/28 03:18:25;;;;;;;8.30;7.53;;;;;;;4.24;94.72;98985.25;5075335;28;20200;-80
2021/12/28 03:20:51;;;;;;;7.93;7.33;;;;;;;4.32;94.80;99004.94;5085208;28;20209;-79
2021/12/28 03:23:21;;;;;;;9.43;8.53;;;;;;;4.26;94.86;99002.47;5094002;28;20196;-79
2021/12/28 03:25:48;;;;;;;8.37;7.67;;;;;;;4.24;94.44;98999.06;5086426;28;20200;-79
2021/12/28 03:28:17;;;;;;;8.50;7.80;;;;;;;4.28;95.16;98974.88;5083678;28;20220;-79
2021/12/28 03:30:45;;;;;;;8.13;7.53;;;;;;;4.37;95.42;98963.50;5075219;28;20255;-79
2021/12/28 03:33:11;;;;;;;9.23;8.53;;;;;;;4.43;95.31;98968.56;5090577;28;20205;-79
2021/12/28 03:35:38;;;;;;;8.83;8.03;;;;;;;4.41;94.62;98966.91;5087966;28;20220;-79
2021/12/28 03:38:04;;;;;;;8.40;7.70;;;;;;;4.41;95.45;98962.56;5093442;28;20220;-79
2021/12/28 03:40:31;;;;;;;8.43;7.73;;;;;;;4.46;94.99;98958.19;5094483;28;20200;-79
2021/12/28 03:42:57;;;;;;;9.27;8.57;;;;;;;4.50;94.44;98974.47;5086362;28;20204;-78
2021/12/28 03:45:23;;;;;;;8.90;8.20;;;;;;;4.46;94.15;98991.78;5091336;28;20192;-79
2021/12/28 03:47:51;;;;;;;7.87;7.27;;;;;;;4.49;94.23;98990.88;5083618;28;20278;-79
2021/12/28 03:50:19;;;;;;;7.80;7.20;;;;;;;4.44;94.21;98995.25;5084714;28;20202;-79
2021/12/28 03:52:46;;;;;;;7.90;7.30;;;;;;;4.26;94.20;98997.28;5089675;28;20570;-79
2021/12/28 03:55:13;;;;;;;7.40;6.80;;;;;;;4.12;94.80;98966.53;5090847;28;20224;-79
2021/12/28 03:57:39;;;;;;;8.23;7.53;;;;;;;4.16;95.18;98944.06;5095654;28;20277;-80
2021/12/28 04:00:08;;;;;;;7.47;6.87;;;;;;;4.15;95.13;98934.63;5079138;28;20202;-80
2021/12/28 04:02:35;;;;;;;7.80;7.10;;;;;;;4.14;95.79;98913.13;5094902;28;20200;-79
2021/12/28 04:05:03;;;;;;;7.10;6.50;;;;;;;4.13;96.04;98906.25;5096626;28;20193;-79
2021/12/28 04:07:30;;;;;;;8.23;7.43;;;;;;;4.14;95.96;98896.75;5096317;28;20223;-79
2021/12/28 04:10:02;;;;;;;8.37;7.67;;;;;;;4.18;95.84;98899.28;5097302;28;20200;-79
2021/12/28 04:12:31;;;;;;;7.77;7.17;;;;;;;4.20;96.00;98896.66;5085926;28;20204;-79
2021/12/28 04:14:58;;;;;;;8.07;7.47;;;;;;;4.11;96.11;98879.59;5090439;28;20219;-79
2021/12/28 04:17:26;;;;;;;8.33;7.63;;;;;;;4.15;96.67;98877.81;5098245;28;20246;-78
2021/12/28 04:19:52;;;;;;;8.40;7.80;;;;;;;4.19;96.50;98869.13;5101544;28;20193;-79
2021/12/28 04:22:20;;;;;;;9.23;8.47;;;;;;;4.22;96.95;98861.31;5097729;28;20193;-79
2021/12/28 04:24:47;;;;;;;9.43;8.73;;;;;;;4.29;97.28;98844.84;5101759;28;20752;-79
2021/12/28 04:27:13;;;;;;;9.33;8.53;;;;;;;4.30;96.75;98850.84;5100341;28;20212;-78
2021/12/28 04:29:40;;;;;;;9.17;8.47;;;;;;;4.32;97.04;98857.72;5103705;28;20197;-79
2021/12/28 04:32:07;;;;;;;8.27;7.57;;;;;;;4.39;96.49;98842.94;5110949;28;20200;-79
2021/12/28 04:34:34;;;;;;;9.37;8.40;;;;;;;4.45;96.70;98847.97;5101599;28;20216;-79
2021/12/28 04:37:00;;;;;;;9.13;8.33;;;;;;;4.48;97.44;98839.28;5101878;28;20251;-79
2021/12/28 04:39:28;;;;;;;9.40;8.70;;;;;;;4.51;97.30;98849.59;5113844;28;20735;-79
2021/12/28 04:41:54;;;;;;;9.03;8.33;;;;;;;4.50;96.91;98850.44;5103832;28;20201;-78
2021/12/28 04:44:24;;;;;;;9.37;8.57;;;;;;;4.51;97.38;98841.84;5105546;28;20233;-79
2021/12/28 04:46:51;;;;;;;10.03;9.13;;;;;;;4.54;97.08;98839.19;5089945;28;20217;-79
2021/12/28 04:49:20;;;;;;;8.97;8.27;;;;;;;4.60;96.98;98839.06;5083775;28;20224;-78
2021/12/28 04:51:47;;;;;;;9.30;8.47;;;;;;;4.68;97.39;98837.19;5086277;28;20223;-78
2021/12/28 04:54:14;;;;;;;9.90;9.10;;;;;;;4.68;97.21;98837.19;5085486;28;20200;-79
2021/12/28 04:56:42;;;;;;;9.20;8.23;;;;;;;4.70;96.96;98844.91;5086331;28;20248;-79
2021/12/28 04:59:09;;;;;;;9.50;8.60;;;;;;;4.72;96.75;98843.97;5090081;28;20196;-79
2021/12/28 05:01:36;;;;;;;9.07;8.27;;;;;;;4.80;96.24;98851.56;5096546;28;20230;-79
2021/12/28 05:04:04;;;;;;;10.07;9.07;;;;;;;4.82;96.22;98860.16;5079470;28;20208;-78
2021/12/28 05:06:30;;;;;;;8.97;8.17;;;;;;;4.79;96.34;98865.38;5083966;28;20592;-79
2021/12/28 05:08:57;;;;;;;9.03;8.23;;;;;;;4.75;96.35;98863.72;5090267;22;20233;-80
2021/12/28 05:11:24;;;;;;;9.73;8.83;;;;;;;4.83;96.28;98845.47;5057620;28;20209;-80
2021/12/28 05:13:51;;;;;;;9.63;8.73;;;;;;;4.76;96.59;98845.63;5042616;28;20209;-80
2021/12/28 05:16:18;;;;;;;10.07;9.23;;;;;;;4.77;97.03;98830.94;5052256;28;20219;-80
2021/12/28 05:18:44;;;;;;;9.67;8.87;;;;;;;4.84;96.95;98827.34;5053033;28;20247;-80
2021/12/28 05:21:10;;;;;;;9.97;9.17;;;;;;;4.82;96.22;98833.47;5051338;28;20201;-79
2021/12/28 05:23:37;;;;;;;9.57;8.77;;;;;;;4.88;96.49;98822.97;5055919;28;20197;-81
2021/12/28 05:26:03;;;;;;;9.87;8.53;;;;;;;4.83;96.31;98822.22;5053049;28;20199;-79
2021/12/28 05:28:29;;;;;;;9.40;8.43;;;;;;;4.78;97.11;98809.41;5056611;28;20239;-81
2021/12/28 05:30:57;;;;;;;9.10;8.20;;;;;;;4.77;96.37;98798.19;5049242;28;20199;-79
2021/12/28 05:33:23;;;;;;;9.40;8.50;;;;;;;4.77;97.00;98793.03;5052905;28;20264;-80
2021/12/28 05:35:50;;;;;;;10.20;8.90;;;;;;;4.76;97.14;98781.00;5054922;28;20222;-79
2021/12/28 05:38:16;;;;;;;9.23;8.43;;;;;;;4.77;97.83;98771.50;5057180;28;20222;-81
2021/12/28 05:40:42;;;;;;;9.87;7.97;;;;;;;4.77;97.59;98766.34;5049529;28;20232;-80
2021/12/28 05:43:09;;;;;;;9.10;8.23;;;;;;;4.79;98.34;98749.06;5049435;28;20202;-80
2021/12/28 05:45:35;;;;;;;9.00;8.20;;;;;;;4.84;98.34;98744.63;5051761;28;20205;-80
2021/12/28 05:48:03;;;;;;;9.73;8.83;;;;;;;4.87;98.05;98754.06;5052905;28;20731;-79
2021/12/28 05:50:29;;;;;;;9.03;8.23;;;;;;;4.79;98.24;98751.63;5051868;28;20720;-79
2021/12/28 05:52:56;;;;;;;9.37;8.47;;;;;;;4.85;98.41;98750.66;5053068;28;20237;-79
2021/12/28 05:55:22;;;;;;;11.83;8.90;;;;;;;4.82;98.26;98746.41;5050793;28;20268;-80
2021/12/28 05:57:48;;;;;;;10.10;9.07;;;;;;;4.85;97.75;98748.06;5059755;28;20205;-80
2021/12/28 06:00:16;;;;;;;12.27;8.53;;;;;;;4.78;97.87;98749.94;5051274;28;20241;-80
2021/12/28 06:02:42;;;;;;;10.20;8.40;;;;;;;4.72;98.32;98753.53;5059761;28;20212;-79
2021/12/28 06:05:10;;;;;;;9.97;8.97;;;;;;;4.68;98.09;98741.56;5058912;28;20193;-80
2021/12/28 06:07:36;;;;;;;8.70;7.90;;;;;;;4.65;98.78;98731.28;5049138;28;20203;-80
2021/12/28 06:10:04;;;;;;;9.90;9.00;;;;;;;4.58;98.79;98722.81;5053294;28;20255;-80
2021/12/28 06:12:31;;;;;;;9.90;9.00;;;;;;;4.57;98.99;98721.09;5049242;28;20203;-80
2021/12/28 06:14:57;;;;;;;9.57;8.47;;;;;;;4.43;98.51;98735.22;5054898;28;20300;-80
2021/12/28 06:17:24;;;;;;;8.43;7.63;;;;;;;4.49;98.48;98715.25;5056787;28;20193;-80
2021/12/28 06:19:50;;;;;;;9.70;8.43;;;;;;;4.50;99.08;98713.50;5052141;28;20249;-80
2021/12/28 06:22:18;;;;;;;15.80;9.53;;;;;;;4.50;98.71;98714.38;5060153;28;20237;-80
2021/12/28 06:24:44;;;;;;;12.40;9.13;;;;;;;4.46;99.27;98705.00;5050974;28;20198;-80
2021/12/28 06:27:11;;;;;;;11.30;8.97;;;;;;;4.51;98.94;98698.00;5051689;28;20220;-80
2021/12/28 06:29:37;;;;;;;10.03;9.20;;;;;;;4.54;98.99;98702.25;5042408;28;20214;-81
2021/12/28 06:32:04;;;;;;;9.40;8.50;;;;;;;4.55;98.46;98709.09;5048097;28;20199;-80
2021/12/28 06:34:30;;;;;;;9.87;8.90;;;;;;;4.54;98.59;98722.94;5048090;28;20810;-81
2021/12/28 06:36:57;;;;;;;9.30;8.40;;;;;;;4.44;98.18;98722.28;5055115;28;20222;-81
2021/12/28 06:39:25;;;;;;;10.43;9.40;;;;;;;4.45;98.09;98730.88;5047765;28;20224;-80
2021/12/28 06:41:51;;;;;;;9.33;8.47;;;;;;;4.45;98.36;98731.72;5050700;28;20262;-81
2021/12/28 06:44:18;;;;;;;9.77;8.70;;;;;;;4.41;98.46;98740.41;5052643;28;20222;-81
2021/12/28 06:46:44;;;;;;;10.60;8.20;;;;;;;4.42;98.25;98734.38;5047419;28;20553;-80
2021/12/28 06:49:10;;;;;;;7.83;6.83;;;;;;;4.33;97.77;98747.47;5049211;28;20225;-80
2021/12/28 06:51:37;;;;;;;9.87;8.50;;;;;;;4.37;98.11;98733.63;5049984;28;20219;-81
2021/12/28 06:54:04;;;;;;;9.20;8.30;;;;;;;4.34;98.66;98721.63;5051330;28;20220;-81
2021/12/28 06:56:32;;;;;;;10.13;7.90;;;;;;;4.28;98.79;98718.31;5050843;28;20225;-81
2021/12/28 06:58:59;;;;;;;9.73;7.97;;;;;;;4.30;98.93;98713.97;5048311;28;20231;-79
2021/12/28 07:01:25;;;;;;;8.40;7.43;;;;;;;4.29;98.55;98723.44;5046690;28;20200;-80
2021/12/28 07:03:52;;;;;;;8.83;7.30;;;;;;;4.26;98.94;98723.53;5049967;28;20221;-81
2021/12/28 07:06:19;;;;;;;8.67;7.77;;;;;;;4.26;98.30;98720.94;5048812;28;20201;-80
2021/12/28 07:08:45;;;;;;;7.50;6.80;;;;;;;4.25;98.31;98729.56;5047223;28;20672;-80
2021/12/28 07:11:12;;;;;;;7.97;6.80;;;;;;;4.27;97.97;98748.44;5051410;28;20220;-81
2021/12/28 07:13:40;;;;;;;10.67;6.57;;;;;;;4.24;97.17;98761.44;5049209;28;20206;-81
2021/12/28 07:16:06;;;;;;;7.27;6.67;;;;;;;4.25;96.99;98770.88;5050351;28;20230;-81
2021/12/28 07:18:32;;;;;;;9.03;6.30;;;;;;;4.25;96.95;98778.63;5051663;28;20271;-81
2021/12/28 07:21:00;;;;;;;7.83;6.53;;;;;;;4.23;97.40;98754.56;5050547;28;20200;-81
2021/12/28 07:23:26;;;;;;;9.10;6.27;;;;;;;4.13;97.56;98756.47;5049657;28;20268;-80
2021/12/28 07:25:54;;;;;;;6.63;6.03;;;;;;;4.13;97.33;98763.38;5049033;28;20255;-81
2021/12/28 07:28:20;;;;;;;9.97;6.83;;;;;;;4.19;97.06;98765.84;5051193;28;20265;-81
2021/12/28 07:30:48;;;;;;;7.53;6.70;;;;;;;4.09;97.25;98777.25;5049712;28;20645;-80
2021/12/28 07:33:14;;;;;;;9.93;6.80;;;;;;;4.12;97.70;98743.59;5050293;28;20687;-81
2021/12/28 07:35:41;;;;;;;8.23;6.83;;;;;;;4.10;97.78;98753.09;5049326;28;20715;-81
2021/12/28 07:38:07;;;;;;;7.70;6.90;;;;;;;4.11;97.58;98747.06;5050672;28;20225;-79
2021/12/28 07:40:34;;;;;;;8.47;7.37;;;;;;;4.10;98.14;98742.78;5047396;28;20194;-81
2021/12/28 07:43:00;;;;;;;8.07;6.23;;;;;;;4.14;98.06;98737.53;5047760;28;20554;-82
2021/12/28 07:45:27;;;;;;;12.30;6.50;;;;;;;4.20;97.79;98738.28;5048155;28;20279;-80
2021/12/28 07:47:55;;;;;;;8.13;6.50;;;;;;;4.23;97.75;98730.47;5045806;28;20222;-79
2021/12/28 07:50:21;;;;;;;10.57;7.13;;;;;;;4.10;97.58;98740.19;5049053;28;20247;-80
2021/12/28 07:52:49;;;;;;;9.73;6.87;;;;;;;4.07;98.39;98722.19;5047987;28;20194;-79
2021/12/28 07:55:16;;;;;;;9.03;6.17;;;;;;;4.14;98.35;98711.72;5044922;28;20644;-80
2021/12/28 07:57:43;;;;;;;9.27;6.60;;;;;;;4.21;98.29;98711.59;5044504;28;20197;-80
2021/12/28 08:00:13;;;;;;;8.47;7.57;;;;;;;4.21;98.21;98709.84;5048641;28;20259;-79
2021/12/28 08:02:39;;;;;;;7.83;6.27;;;;;;;4.27;98.38;98703.72;5046926;28;20201;-79
2021/12/28 08:05:08;;;;;;;26.07;18.70;;;;;;;4.40;99.17;98688.78;5046549;28;20198;-79
2021/12/28 08:07:34;;;;;;;17.40;11.57;;;;;;;4.61;100.00;98652.13;5046805;28;20195;-79
2021/12/28 08:10:01;;;;;;;9.37;6.53;;;;;;;4.75;100.00;98633.69;5044366;28;20245;-79
2021/12/28 08:12:27;;;;;;;11.60;7.93;;;;;;;5.00;100.00;98641.69;5044782;28;20263;-79
2021/12/28 08:14:54;;;;;;;9.40;8.00;;;;;;;5.04;100.00;98637.31;5043297;28;20198;-79
2021/12/28 08:17:20;;;;;;;9.60;6.30;;;;;;;5.10;100.00;98647.50;5042784;28;20237;-80
2021/12/28 08:19:46;;;;;;;10.90;7.53;;;;;;;5.15;99.86;98667.19;5044993;28;20299;-80
2021/12/28 08:22:14;;;;;;;12.03;6.33;;;;;;;5.30;100.00;98658.16;5044940;28;20675;-80
2021/12/28 08:24:40;;;;;;;8.37;5.90;;;;;;;5.31;99.88;98662.47;5048310;28;20219;-80
2021/12/28 08:27:07;;;;;;;11.10;5.73;;;;;;;5.29;98.71;98686.66;5043958;28;20215;-80
2021/12/28 08:29:33;;;;;;;8.73;6.23;;;;;;;5.25;98.04;98714.34;5045765;28;20767;-80
2021/12/28 08:31:59;;;;;;;8.30;5.50;;;;;;;5.23;97.73;98716.09;5048087;28;20191;-79
2021/12/28 08:34:26;;;;;;;14.43;5.83;;;;;;;5.23;99.02;98694.56;5044312;28;20719;-81
2021/12/28 08:36:52;;;;;;;8.27;5.77;;;;;;;5.31;99.02;98670.22;5048912;28;20277;-79
2021/12/28 08:39:20;;;;;;;12.17;6.60;;;;;;;5.42;98.91;98667.34;5044027;28;20223;-81
2021/12/28 08:41:46;;;;;;;7.30;5.43;;;;;;;5.51;99.23;98666.22;5046344;28;20214;-81
2021/12/28 08:44:13;;;;;;;9.37;6.50;;;;;;;5.52;98.83;98680.88;5045701;28;20258;-81
2021/12/28 08:46:39;;;;;;;9.00;6.20;;;;;;;5.56;99.44;98675.56;5049652;28;20247;-80
2021/12/28 08:49:06;;;;;;;8.73;6.20;;;;;;;5.61;98.71;98690.13;5046393;28;20774;-82
2021/12/28 08:51:32;;;;;;;11.20;6.83;;;;;;;5.62;98.64;98691.84;5047684;28;20198;-81
2021/12/28 08:53:59;;;;;;;7.47;5.90;;;;;;;5.70;98.54;98695.91;5046868;28;20665;-81
2021/12/28 08:56:26;;;;;;;8.03;5.63;;;;;;;5.76;98.02;98702.66;5042111;28;20228;-82
2021/12/28 08:58:56;;;;;;;11.00;5.63;;;;;;;5.77;97.94;98717.31;5047120;28;20641;-80
2021/12/28 09:01:22;;;;;;;8.90;5.67;;;;;;;5.79;97.23;98720.72;5049143;28;20247;-82
2021/12/28 09:03:52;;;;;;;9.67;5.90;;;;;;;5.92;97.92;98709.09;5048113;28;20215;-82
2021/12/28 09:06:19;;;;;;;8.10;5.17;;;;;;;6.00;97.29;98711.50;5045925;28;20225;-81
2021/12/28 09:08:45;;;;;;;7.33;5.27;;;;;;;6.04;96.46;98728.66;5047411;28;20240;-81
2021/12/28 09:11:11;;;;;;;7.20;5.23;;;;;;;6.10;97.13;98735.41;5045003;28;20195;-81
2021/12/28 09:13:39;;;;;;;6.30;4.67;;;;;;;6.17;96.63;98724.00;5046306;28;20217;-82
2021/12/28 09:16:06;;;;;;;5.67;4.93;;;;;;;6.30;96.40;98730.53;5044869;28;20226;-79
2021/12/28 09:18:32;;;;;;;14.37;4.80;;;;;;;6.28;95.55;98750.44;5041738;28;20224;-79
2021/12/28 09:20:59;;;;;;;11.07;5.23;;;;;;;6.30;95.37;98756.44;5042442;28;20260;-79
2021/12/28 09:23:25;;;;;;;9.50;5.03;;;;;;;6.32;95.33;98767.59;5050304;28;20673;-80
2021/12/28 09:25:52;;;;;;;7.37;4.33;;;;;;;6.28;94.92;98776.34;5052726;28;20200;-79
2021/12/28 09:28:19;;;;;;;7.73;4.73;;;;;;;6.26;94.58;98785.88;5047913;28;20612;-81
2021/12/28 09:30:47;;;;;;;7.33;4.20;;;;;;;6.41;95.32;98781.19;5045658;28;20212;-80
2021/12/28 09:33:14;;;;;;;8.50;4.20;;;;;;;6.27;94.82;98803.16;5047738;28;20225;-80
2021/12/28 09:35:40;;;;;;;8.50;4.03;;;;;;;6.25;94.78;98804.94;5051105;28;20203;-80
2021/12/28 09:38:07;;;;;;;6.10;3.93;;;;;;;6.31;95.12;98801.31;5050708;28;20288;-81
2021/12/28 09:40:36;;;;;;;6.67;4.80;;;;;;;6.35;94.73;98798.59;5046039;28;20200;-82
2021/12/28 09:43:04;;;;;;;6.33;3.97;;;;;;;6.37;94.91;98806.34;5048592;28;20199;-81
2021/12/28 09:45:31;;;;;;;5.33;4.53;;;;;;;6.38;94.49;98810.59;5048671;28;20249;-80
2021/12/28 09:47:59;;;;;;;6.13;3.80;;;;;;;6.48;94.27;98801.72;5047508;28;20775;-80
2021/12/28 09:50:26;;;;;;;8.53;4.23;;;;;;;6.47;94.00;98819.88;5048043;28;20230;-80
2021/12/28 09:52:53;;;;;;;8.83;4.17;;;;;;;6.43;93.15;98816.53;5050601;28;20194;-81
2021/12/28 09:55:22;;;;;;;8.63;3.77;;;;;;;6.59;93.46;98819.53;5047200;28;20250;-81
2021/12/28 09:57:48;;;;;;;6.03;3.27;;;;;;;6.65;93.12;98828.88;5050596;28;20223;-80
2021/12/28 10:00:16;;;;;;;6.73;3.73;;;;;;;6.74;92.77;98826.03;5048192;28;20204;-81
2021/12/28 10:02:43;;;;;;;7.33;4.03;;;;;;;6.75;92.61;98833.72;5048416;28;20199;-81
2021/12/28 10:05:14;;;;;;;5.13;3.37;;;;;;;6.78;93.02;98837.13;5048618;28;20204;-80
2021/12/28 10:07:45;;;;;;;7.40;4.27;;;;;;;6.74;92.47;98852.78;5050994;28;20200;-81
2021/12/28 10:10:12;;;;;;;5.47;3.83;;;;;;;6.73;91.37;98856.28;5045692;28;20199;-79
2021/12/28 10:12:41;;;;;;;7.37;3.83;;;;;;;6.78;91.79;98848.38;5049605;28;20215;-80
2021/12/28 10:15:09;;;;;;;5.60;3.00;;;;;;;6.75;92.48;98836.31;5049210;28;20196;-80
2021/12/28 10:17:39;;;;;;;5.43;3.90;;;;;;;6.72;91.93;98836.44;5046125;28;20217;-80
2021/12/28 10:20:10;;;;;;;8.03;3.17;;;;;;;6.73;92.67;98827.75;5050465;28;20740;-80
2021/12/28 10:22:42;;;;;;;5.10;3.20;;;;;;;6.82;91.93;98820.59;5045112;28;20253;-81
2021/12/28 10:25:12;;;;;;;3.87;3.30;;;;;;;6.72;91.97;98845.97;5045507;28;20340;-80
2021/12/28 10:27:41;;;;;;;7.53;3.93;;;;;;;6.71;91.95;98842.50;5046714;28;20207;-81
2021/12/28 10:30:13;;;;;;;4.73;3.73;;;;;;;6.79;91.44;98829.31;5052069;28;20646;-82
2021/12/28 10:32:41;;;;;;;4.93;3.87;;;;;;;6.80;91.39;98843.13;5048499;28;20209;-81
2021/12/28 10:35:10;;;;;;;5.97;3.20;;;;;;;6.78;91.35;98840.59;5049502;28;20240;-81
2021/12/28 10:37:40;;;;;;;6.07;3.70;;;;;;;6.73;91.63;98826.91;5048150;28;20271;-83
2021/12/28 10:40:10;;;;;;;3.70;3.20;;;;;;;6.80;91.27;98819.78;5046036;28;20261;-81
2021/12/28 10:42:53;;;;;;;4.27;3.47;;;;;;;6.79;91.39;98815.50;5047974;28;20222;-82
2021/12/28 10:45:22;;;;;;;5.67;3.90;;;;;;;6.91;92.20;98807.34;5050478;28;20207;-81
2021/12/28 10:47:50;;;;;;;5.37;3.63;;;;;;;7.01;91.99;98807.91;5050186;28;20228;-81
2021/12/28 10:50:31;;;;;;;3.67;3.30;;;;;;;7.02;91.13;98825.19;5051560;28;20258;-81
2021/12/28 10:53:10;;;;;;;6.30;3.23;;;;;;;7.06;90.80;98819.88;5044633;28;20211;-81
2021/12/28 10:55:36;;;;;;;5.23;3.33;;;;;;;7.13;91.01;98820.50;5044501;28;20276;-80
2021/12/28 10:58:03;;;;;;;3.33;2.67;;;;;;;7.18;90.90;98817.78;5048733;28;20282;-81
2021/12/28 11:00:34;;;;;;;4.60;2.90;;;;;;;7.24;90.75;98822.78;5050687;28;20196;-82
2021/12/28 11:03:26;;;;;;;3.77;3.40;;;;;;;7.26;90.69;98829.63;5045414;28;20261;-82
2021/12/28 11:05:54;;;;;;;4.80;3.40;;;;;;;7.27;90.00;98848.63;5047990;28;20208;-81
2021/12/28 11:10:59;;;;;;;3.40;2.80;;;;;;;7.41;89.73;98838.66;5067431;28;20764;-77
2021/12/28 11:13:30;;;;;;;3.70;3.40;;;;;;;7.49;89.84;98841.00;5072501;28;20299;-78
2021/12/28 11:15:58;;;;;;;4.23;3.07;;;;;;;7.56;88.74;98855.50;5070988;28;20214;-78
2021/12/28 11:18:30;;;;;;;4.40;4.00;;;;;;;7.54;88.77;98860.72;5075597;28;20619;-79
2021/12/28 11:20:58;;;;;;;4.17;3.20;;;;;;;7.55;88.21;98853.78;5064184;28;20203;-78
2021/12/28 11:23:26;;;;;;;5.23;3.50;;;;;;;7.43;88.73;98865.41;5062245;28;20200;-77
2021/12/28 11:26:12;;;;;;;5.47;4.97;;;;;;;7.40;88.84;98849.94;5063013;28;20248;-77
2021/12/28 11:28:41;;;;;;;11.20;7.73;;;;;;;7.53;90.88;98781.16;5061734;28;20250;-77
2021/12/28 11:31:16;;;;;;;5.27;4.13;;;;;;;7.59;90.83;98777.53;5060898;28;20691;-77
2021/12/28 11:33:56;;;;;;;5.03;4.53;;;;;;;7.66;89.55;98794.56;5060882;28;20625;-77
2021/12/28 11:36:24;;;;;;;4.90;4.07;;;;;;;7.72;89.43;98796.13;5062261;28;20195;-77
2021/12/28 11:38:53;;;;;;;5.27;4.67;;;;;;;7.79;88.33;98820.13;5065454;28;20220;-78
2021/12/28 11:41:22;;;;;;;3.77;3.30;;;;;;;7.86;88.99;98813.81;5064778;28;20215;-79